sensor_id;sensor_type;location;lat;lon;timestamp;P1;durP1;ratioP1;P2;durP2;ratioP2
59052;SDS011;44843;44.728;10.396;2022-07-29T00:02:07;15.27;;;11.02;;
59052;SDS011;44843;44.728;10.396;2022-07-29T00:04:36;12.15;;;10.32;;
59052;SDS011;44843;44.728;10.396;2022-07-29T00:07:02;12.23;;;10.77;;
59052;SDS011;44843;44.728;10.396;2022-07-29T00:09:28;14.00;;;10.50;;
59052;SDS011;44843;44.728;10.396;2022-07-29T00:11:53;14.13;;;11.07;;
59052;SDS011;44843;44.728;10.396;2022-07-29T00:14:23;13.60;;;10.82;;
59052;SDS011;44843;44.728;10.396;2022-07-29T00:16:48;12.52;;;11.18;;
59052;SDS011;44843;44.728;10.396;2022-07-29T00:19:14;12.25;;;10.95;;
59052;SDS011;44843;44.728;10.396;2022-07-29T00:21:39;18.27;;;11.60;;
59052;SDS011;44843;44.728;10.396;2022-07-29T00:24:05;15.60;;;10.98;;
59052;SDS011;44843;44.728;10.396;2022-07-29T00:26:30;14.68;;;11.65;;
59052;SDS011;44843;44.728;10.396;2022-07-29T00:29:00;16.23;;;11.30;;
59052;SDS011;44843;44.728;10.396;2022-07-29T00:31:27;12.77;;;10.30;;
59052;SDS011;44843;44.728;10.396;2022-07-29T00:33:52;18.00;;;10.23;;
59052;SDS011;44843;44.728;10.396;2022-07-29T00:36:18;11.00;;;9.80;;
59052;SDS011;44843;44.728;10.396;2022-07-29T00:38:46;13.43;;;9.65;;
59052;SDS011;44843;44.728;10.396;2022-07-29T00:41:15;11.10;;;9.55;;
59052;SDS011;44843;44.728;10.396;2022-07-29T00:43:41;10.73;;;9.43;;
59052;SDS011;44843;44.728;10.396;2022-07-29T00:46:07;11.90;;;9.88;;
59052;SDS011;44843;44.728;10.396;2022-07-29T00:48:33;14.35;;;10.25;;
59052;SDS011;44843;44.728;10.396;2022-07-29T00:50:58;13.38;;;8.75;;
59052;SDS011;44843;44.728;10.396;2022-07-29T00:53:26;13.05;;;9.95;;
59052;SDS011;44843;44.728;10.396;2022-07-29T00:55:53;12.43;;;8.95;;
59052;SDS011;44843;44.728;10.396;2022-07-29T00:58:20;9.98;;;8.70;;
59052;SDS011;44843;44.728;10.396;2022-07-29T01:00:45;14.45;;;8.98;;
59052;SDS011;44843;44.728;10.396;2022-07-29T01:03:11;10.65;;;8.45;;
59052;SDS011;44843;44.728;10.396;2022-07-29T01:05:36;10.27;;;8.75;;
59052;SDS011;44843;44.728;10.396;2022-07-29T01:08:03;16.17;;;10.50;;
59052;SDS011;44843;44.728;10.396;2022-07-29T01:10:28;13.48;;;8.57;;
59052;SDS011;44843;44.728;10.396;2022-07-29T01:12:56;8.95;;;7.63;;
59052;SDS011;44843;44.728;10.396;2022-07-29T01:15:23;12.95;;;8.18;;
59052;SDS011;44843;44.728;10.396;2022-07-29T01:28:01;11.75;;;8.45;;
59052;SDS011;44843;44.728;10.396;2022-07-29T01:30:42;14.27;;;9.18;;
59052;SDS011;44843;44.728;10.396;2022-07-29T01:33:12;13.93;;;10.05;;
59052;SDS011;44843;44.728;10.396;2022-07-29T01:36:01;14.65;;;10.75;;
59052;SDS011;44843;44.728;10.396;2022-07-29T01:38:32;15.10;;;9.85;;
59052;SDS011;44843;44.728;10.396;2022-07-29T01:41:09;13.75;;;9.98;;
59052;SDS011;44843;44.728;10.396;2022-07-29T01:43:59;13.82;;;10.43;;
59052;SDS011;44843;44.728;10.396;2022-07-29T01:46:36;14.25;;;10.23;;
59052;SDS011;44843;44.728;10.396;2022-07-29T01:49:17;12.65;;;10.38;;
59052;SDS011;44843;44.728;10.396;2022-07-29T01:51:50;12.07;;;10.27;;
59052;SDS011;44843;44.728;10.396;2022-07-29T01:57:18;11.95;;;10.38;;
59052;SDS011;44843;44.728;10.396;2022-07-29T01:59:46;17.42;;;11.48;;
59052;SDS011;44843;44.728;10.396;2022-07-29T02:02:16;13.82;;;11.48;;
59052;SDS011;44843;44.728;10.396;2022-07-29T02:04:43;18.60;;;12.45;;
59052;SDS011;44843;44.728;10.396;2022-07-29T02:07:13;18.20;;;12.70;;
59052;SDS011;44843;44.728;10.396;2022-07-29T02:09:42;17.10;;;13.70;;
59052;SDS011;44843;44.728;10.396;2022-07-29T02:12:10;15.40;;;13.73;;
59052;SDS011;44843;44.728;10.396;2022-07-29T02:14:41;20.83;;;15.32;;
59052;SDS011;44843;44.728;10.396;2022-07-29T02:17:09;22.15;;;16.23;;
59052;SDS011;44843;44.728;10.396;2022-07-29T02:19:37;22.52;;;15.70;;
59052;SDS011;44843;44.728;10.396;2022-07-29T02:22:04;24.27;;;16.58;;
59052;SDS011;44843;44.728;10.396;2022-07-29T02:24:31;22.08;;;16.73;;
59052;SDS011;44843;44.728;10.396;2022-07-29T02:26:58;18.83;;;15.18;;
59052;SDS011;44843;44.728;10.396;2022-07-29T02:29:26;21.40;;;15.23;;
59052;SDS011;44843;44.728;10.396;2022-07-29T02:31:53;22.23;;;15.13;;
59052;SDS011;44843;44.728;10.396;2022-07-29T02:34:21;17.65;;;14.55;;
59052;SDS011;44843;44.728;10.396;2022-07-29T02:36:47;19.65;;;13.95;;
59052;SDS011;44843;44.728;10.396;2022-07-29T02:39:14;21.45;;;14.95;;
59052;SDS011;44843;44.728;10.396;2022-07-29T02:41:59;17.90;;;14.77;;
59052;SDS011;44843;44.728;10.396;2022-07-29T02:44:30;19.25;;;16.25;;
59052;SDS011;44843;44.728;10.396;2022-07-29T02:49:57;24.65;;;17.10;;
59052;SDS011;44843;44.728;10.396;2022-07-29T02:55:21;22.02;;;16.63;;
59052;SDS011;44843;44.728;10.396;2022-07-29T02:57:55;21.80;;;17.65;;
59052;SDS011;44843;44.728;10.396;2022-07-29T03:00:26;23.90;;;17.42;;
59052;SDS011;44843;44.728;10.396;2022-07-29T03:02:54;21.20;;;16.98;;
59052;SDS011;44843;44.728;10.396;2022-07-29T03:05:23;22.60;;;17.60;;
59052;SDS011;44843;44.728;10.396;2022-07-29T03:07:51;23.52;;;16.50;;
59052;SDS011;44843;44.728;10.396;2022-07-29T03:10:22;22.85;;;16.75;;
59052;SDS011;44843;44.728;10.396;2022-07-29T03:12:50;21.67;;;16.17;;
59052;SDS011;44843;44.728;10.396;2022-07-29T03:15:16;20.52;;;14.68;;
59052;SDS011;44843;44.728;10.396;2022-07-29T03:17:42;17.17;;;13.18;;
59052;SDS011;44843;44.728;10.396;2022-07-29T03:20:08;16.05;;;12.25;;
59052;SDS011;44843;44.728;10.396;2022-07-29T03:22:41;19.17;;;11.50;;
59052;SDS011;44843;44.728;10.396;2022-07-29T03:25:13;15.55;;;10.80;;
59052;SDS011;44843;44.728;10.396;2022-07-29T03:27:40;13.00;;;10.57;;
59052;SDS011;44843;44.728;10.396;2022-07-29T03:30:06;12.57;;;10.13;;
59052;SDS011;44843;44.728;10.396;2022-07-29T03:32:33;15.10;;;9.45;;
59052;SDS011;44843;44.728;10.396;2022-07-29T03:34:59;13.52;;;9.68;;
59052;SDS011;44843;44.728;10.396;2022-07-29T03:37:24;13.52;;;9.18;;
59052;SDS011;44843;44.728;10.396;2022-07-29T03:39:51;14.35;;;9.73;;
59052;SDS011;44843;44.728;10.396;2022-07-29T03:42:19;12.02;;;9.70;;
59052;SDS011;44843;44.728;10.396;2022-07-29T03:44:47;10.82;;;9.27;;
59052;SDS011;44843;44.728;10.396;2022-07-29T03:47:15;11.02;;;9.35;;
59052;SDS011;44843;44.728;10.396;2022-07-29T03:49:44;14.23;;;8.77;;
59052;SDS011;44843;44.728;10.396;2022-07-29T03:52:13;13.55;;;8.98;;
59052;SDS011;44843;44.728;10.396;2022-07-29T03:54:39;11.30;;;8.80;;
59052;SDS011;44843;44.728;10.396;2022-07-29T03:57:05;12.68;;;10.18;;
59052;SDS011;44843;44.728;10.396;2022-07-29T03:59:32;13.80;;;10.32;;
59052;SDS011;44843;44.728;10.396;2022-07-29T04:01:59;14.02;;;10.05;;
59052;SDS011;44843;44.728;10.396;2022-07-29T04:04:26;13.68;;;10.93;;
59052;SDS011;44843;44.728;10.396;2022-07-29T04:06:52;15.07;;;10.27;;
59052;SDS011;44843;44.728;10.396;2022-07-29T04:09:17;12.63;;;9.68;;
59052;SDS011;44843;44.728;10.396;2022-07-29T04:11:42;10.88;;;9.45;;
59052;SDS011;44843;44.728;10.396;2022-07-29T04:14:08;18.08;;;9.77;;
59052;SDS011;44843;44.728;10.396;2022-07-29T04:16:34;10.18;;;8.80;;
59052;SDS011;44843;44.728;10.396;2022-07-29T04:18:59;12.20;;;10.35;;
59052;SDS011;44843;44.728;10.396;2022-07-29T04:21:25;12.60;;;10.65;;
59052;SDS011;44843;44.728;10.396;2022-07-29T04:23:50;14.05;;;10.63;;
59052;SDS011;44843;44.728;10.396;2022-07-29T04:26:16;17.17;;;11.43;;
59052;SDS011;44843;44.728;10.396;2022-07-29T04:28:42;16.38;;;12.57;;
59052;SDS011;44843;44.728;10.396;2022-07-29T04:31:08;19.25;;;12.75;;
59052;SDS011;44843;44.728;10.396;2022-07-29T04:33:34;16.35;;;12.30;;
59052;SDS011;44843;44.728;10.396;2022-07-29T04:36:00;18.17;;;11.90;;
59052;SDS011;44843;44.728;10.396;2022-07-29T04:38:25;15.07;;;10.95;;
59052;SDS011;44843;44.728;10.396;2022-07-29T04:40:50;16.40;;;11.50;;
59052;SDS011;44843;44.728;10.396;2022-07-29T04:43:16;13.38;;;11.30;;
59052;SDS011;44843;44.728;10.396;2022-07-29T04:45:41;14.30;;;11.02;;
59052;SDS011;44843;44.728;10.396;2022-07-29T04:48:07;14.77;;;11.70;;
59052;SDS011;44843;44.728;10.396;2022-07-29T04:50:33;13.65;;;10.98;;
59052;SDS011;44843;44.728;10.396;2022-07-29T04:52:58;14.65;;;12.43;;
59052;SDS011;44843;44.728;10.396;2022-07-29T04:55:24;15.57;;;10.95;;
59052;SDS011;44843;44.728;10.396;2022-07-29T04:57:50;14.38;;;11.10;;
59052;SDS011;44843;44.728;10.396;2022-07-29T05:00:15;14.23;;;11.65;;
59052;SDS011;44843;44.728;10.396;2022-07-29T05:02:41;20.60;;;12.25;;
59052;SDS011;44843;44.728;10.396;2022-07-29T05:05:07;17.90;;;12.15;;
59052;SDS011;44843;44.728;10.396;2022-07-29T05:07:33;16.10;;;11.88;;
59052;SDS011;44843;44.728;10.396;2022-07-29T05:09:58;16.13;;;12.57;;
59052;SDS011;44843;44.728;10.396;2022-07-29T05:12:24;15.02;;;12.63;;
59052;SDS011;44843;44.728;10.396;2022-07-29T05:14:50;18.70;;;12.93;;
59052;SDS011;44843;44.728;10.396;2022-07-29T05:17:15;16.92;;;13.25;;
59052;SDS011;44843;44.728;10.396;2022-07-29T05:19:41;14.90;;;12.80;;
59052;SDS011;44843;44.728;10.396;2022-07-29T05:22:07;21.42;;;13.50;;
59052;SDS011;44843;44.728;10.396;2022-07-29T05:24:32;18.30;;;13.75;;
59052;SDS011;44843;44.728;10.396;2022-07-29T05:26:57;19.00;;;13.52;;
59052;SDS011;44843;44.728;10.396;2022-07-29T05:29:23;17.23;;;13.38;;
59052;SDS011;44843;44.728;10.396;2022-07-29T05:31:48;17.73;;;13.43;;
59052;SDS011;44843;44.728;10.396;2022-07-29T05:34:13;25.20;;;14.85;;
59052;SDS011;44843;44.728;10.396;2022-07-29T05:36:39;15.35;;;13.75;;
59052;SDS011;44843;44.728;10.396;2022-07-29T05:39:04;17.75;;;13.40;;
59052;SDS011;44843;44.728;10.396;2022-07-29T05:41:33;14.93;;;13.27;;
59052;SDS011;44843;44.728;10.396;2022-07-29T05:43:58;18.33;;;13.48;;
59052;SDS011;44843;44.728;10.396;2022-07-29T05:46:24;17.50;;;12.75;;
59052;SDS011;44843;44.728;10.396;2022-07-29T05:48:49;17.60;;;13.23;;
59052;SDS011;44843;44.728;10.396;2022-07-29T05:51:15;17.58;;;13.10;;
59052;SDS011;44843;44.728;10.396;2022-07-29T05:53:40;15.88;;;13.13;;
59052;SDS011;44843;44.728;10.396;2022-07-29T05:56:06;15.75;;;11.52;;
59052;SDS011;44843;44.728;10.396;2022-07-29T05:58:32;11.60;;;10.00;;
59052;SDS011;44843;44.728;10.396;2022-07-29T06:00:57;11.77;;;9.57;;
59052;SDS011;44843;44.728;10.396;2022-07-29T06:03:24;11.95;;;9.85;;
59052;SDS011;44843;44.728;10.396;2022-07-29T06:05:50;11.25;;;9.25;;
59052;SDS011;44843;44.728;10.396;2022-07-29T06:08:15;10.45;;;8.20;;
59052;SDS011;44843;44.728;10.396;2022-07-29T06:10:42;12.57;;;8.10;;
59052;SDS011;44843;44.728;10.396;2022-07-29T06:13:07;9.65;;;8.65;;
59052;SDS011;44843;44.728;10.396;2022-07-29T06:15:32;11.07;;;8.27;;
59052;SDS011;44843;44.728;10.396;2022-07-29T06:17:58;8.75;;;7.55;;
59052;SDS011;44843;44.728;10.396;2022-07-29T06:20:23;8.57;;;7.35;;
59052;SDS011;44843;44.728;10.396;2022-07-29T06:22:49;11.10;;;6.63;;
59052;SDS011;44843;44.728;10.396;2022-07-29T06:25:14;14.60;;;6.57;;
59052;SDS011;44843;44.728;10.396;2022-07-29T06:27:40;8.45;;;7.13;;
59052;SDS011;44843;44.728;10.396;2022-07-29T06:30:05;8.68;;;7.03;;
59052;SDS011;44843;44.728;10.396;2022-07-29T06:32:32;21.92;;;7.88;;
59052;SDS011;44843;44.728;10.396;2022-07-29T06:34:58;16.90;;;7.35;;
59052;SDS011;44843;44.728;10.396;2022-07-29T06:37:23;75.38;;;11.95;;
59052;SDS011;44843;44.728;10.396;2022-07-29T06:39:49;10.68;;;7.80;;
59052;SDS011;44843;44.728;10.396;2022-07-29T06:42:34;9.20;;;7.40;;
59052;SDS011;44843;44.728;10.396;2022-07-29T06:44:59;13.02;;;7.75;;
59052;SDS011;44843;44.728;10.396;2022-07-29T06:47:25;10.43;;;7.82;;
59052;SDS011;44843;44.728;10.396;2022-07-29T06:49:50;9.57;;;7.20;;
59052;SDS011;44843;44.728;10.396;2022-07-29T06:52:16;10.63;;;6.80;;
59052;SDS011;44843;44.728;10.396;2022-07-29T06:54:41;10.20;;;7.60;;
59052;SDS011;44843;44.728;10.396;2022-07-29T06:57:12;7.93;;;7.13;;
59052;SDS011;44843;44.728;10.396;2022-07-29T06:59:38;12.82;;;8.18;;
59052;SDS011;44843;44.728;10.396;2022-07-29T07:02:04;12.15;;;8.05;;
59052;SDS011;44843;44.728;10.396;2022-07-29T07:04:29;9.02;;;7.65;;
59052;SDS011;44843;44.728;10.396;2022-07-29T07:06:54;9.73;;;7.68;;
59052;SDS011;44843;44.728;10.396;2022-07-29T07:09:20;11.30;;;9.60;;
59052;SDS011;44843;44.728;10.396;2022-07-29T07:11:46;10.77;;;8.55;;
59052;SDS011;44843;44.728;10.396;2022-07-29T07:14:11;13.93;;;9.40;;
59052;SDS011;44843;44.728;10.396;2022-07-29T07:16:37;13.57;;;10.27;;
59052;SDS011;44843;44.728;10.396;2022-07-29T07:19:02;16.00;;;10.52;;
59052;SDS011;44843;44.728;10.396;2022-07-29T07:21:28;15.10;;;11.63;;
59052;SDS011;44843;44.728;10.396;2022-07-29T07:23:53;13.45;;;10.88;;
59052;SDS011;44843;44.728;10.396;2022-07-29T07:26:19;19.45;;;10.80;;
59052;SDS011;44843;44.728;10.396;2022-07-29T07:28:44;14.75;;;11.27;;
59052;SDS011;44843;44.728;10.396;2022-07-29T07:31:10;16.30;;;10.80;;
59052;SDS011;44843;44.728;10.396;2022-07-29T07:33:37;13.77;;;11.93;;
59052;SDS011;44843;44.728;10.396;2022-07-29T07:36:02;17.40;;;11.95;;
59052;SDS011;44843;44.728;10.396;2022-07-29T07:38:28;14.57;;;12.73;;
59052;SDS011;44843;44.728;10.396;2022-07-29T07:40:54;14.85;;;11.20;;
59052;SDS011;44843;44.728;10.396;2022-07-29T07:43:19;13.27;;;11.57;;
59052;SDS011;44843;44.728;10.396;2022-07-29T07:45:44;17.35;;;12.05;;
59052;SDS011;44843;44.728;10.396;2022-07-29T07:48:10;17.58;;;12.73;;
59052;SDS011;44843;44.728;10.396;2022-07-29T07:50:36;14.13;;;11.10;;
59052;SDS011;44843;44.728;10.396;2022-07-29T07:53:02;15.52;;;11.38;;
59052;SDS011;44843;44.728;10.396;2022-07-29T07:55:28;14.85;;;12.20;;
59052;SDS011;44843;44.728;10.396;2022-07-29T07:57:54;15.43;;;11.82;;
59052;SDS011;44843;44.728;10.396;2022-07-29T08:00:20;13.95;;;10.80;;
59052;SDS011;44843;44.728;10.396;2022-07-29T08:02:46;12.40;;;10.88;;
59052;SDS011;44843;44.728;10.396;2022-07-29T08:05:12;14.20;;;11.15;;
59052;SDS011;44843;44.728;10.396;2022-07-29T08:07:42;14.90;;;12.05;;
59052;SDS011;44843;44.728;10.396;2022-07-29T08:10:09;13.68;;;11.20;;
59052;SDS011;44843;44.728;10.396;2022-07-29T08:12:34;15.15;;;11.88;;
59052;SDS011;44843;44.728;10.396;2022-07-29T08:15:00;14.50;;;10.73;;
59052;SDS011;44843;44.728;10.396;2022-07-29T08:17:25;10.48;;;9.38;;
59052;SDS011;44843;44.728;10.396;2022-07-29T08:19:51;10.50;;;8.00;;
59052;SDS011;44843;44.728;10.396;2022-07-29T08:22:17;10.27;;;8.88;;
59052;SDS011;44843;44.728;10.396;2022-07-29T08:24:42;9.38;;;7.95;;
59052;SDS011;44843;44.728;10.396;2022-07-29T08:27:08;11.07;;;8.50;;
59052;SDS011;44843;44.728;10.396;2022-07-29T08:29:37;10.73;;;8.30;;
59052;SDS011;44843;44.728;10.396;2022-07-29T08:32:03;12.35;;;8.23;;
59052;SDS011;44843;44.728;10.396;2022-07-29T08:34:29;13.88;;;9.77;;
59052;SDS011;44843;44.728;10.396;2022-07-29T08:36:55;12.43;;;9.57;;
59052;SDS011;44843;44.728;10.396;2022-07-29T08:39:21;10.32;;;8.38;;
59052;SDS011;44843;44.728;10.396;2022-07-29T08:41:47;12.65;;;9.93;;
59052;SDS011;44843;44.728;10.396;2022-07-29T08:44:13;12.07;;;8.43;;
59052;SDS011;44843;44.728;10.396;2022-07-29T08:46:40;13.68;;;9.15;;
59052;SDS011;44843;44.728;10.396;2022-07-29T08:49:06;8.75;;;6.75;;
59052;SDS011;44843;44.728;10.396;2022-07-29T08:51:32;12.68;;;7.80;;
59052;SDS011;44843;44.728;10.396;2022-07-29T08:54:00;11.13;;;8.82;;
59052;SDS011;44843;44.728;10.396;2022-07-29T08:56:26;12.80;;;10.25;;
59052;SDS011;44843;44.728;10.396;2022-07-29T08:58:52;12.32;;;9.63;;
59052;SDS011;44843;44.728;10.396;2022-07-29T09:01:23;11.90;;;8.38;;
59052;SDS011;44843;44.728;10.396;2022-07-29T09:03:49;9.85;;;7.85;;
59052;SDS011;44843;44.728;10.396;2022-07-29T09:06:19;10.65;;;5.93;;
59052;SDS011;44843;44.728;10.396;2022-07-29T09:08:46;11.20;;;6.53;;
59052;SDS011;44843;44.728;10.396;2022-07-29T09:11:12;8.63;;;5.93;;
59052;SDS011;44843;44.728;10.396;2022-07-29T09:13:38;15.98;;;11.10;;
59052;SDS011;44843;44.728;10.396;2022-07-29T09:16:04;11.40;;;8.75;;
59052;SDS011;44843;44.728;10.396;2022-07-29T09:20:59;13.02;;;8.57;;
59052;SDS011;44843;44.728;10.396;2022-07-29T09:26:27;9.68;;;8.68;;
59052;SDS011;44843;44.728;10.396;2022-07-29T09:28:53;10.15;;;7.85;;
59052;SDS011;44843;44.728;10.396;2022-07-29T09:31:18;11.30;;;8.13;;
59052;SDS011;44843;44.728;10.396;2022-07-29T09:33:58;10.07;;;6.97;;
59052;SDS011;44843;44.728;10.396;2022-07-29T09:36:25;15.43;;;8.40;;
59052;SDS011;44843;44.728;10.396;2022-07-29T09:38:57;11.18;;;8.38;;
59052;SDS011;44843;44.728;10.396;2022-07-29T09:41:25;13.27;;;8.18;;
59052;SDS011;44843;44.728;10.396;2022-07-29T09:43:55;8.20;;;6.93;;
59052;SDS011;44843;44.728;10.396;2022-07-29T09:46:24;11.27;;;8.30;;
59052;SDS011;44843;44.728;10.396;2022-07-29T09:49:09;9.30;;;7.18;;
59052;SDS011;44843;44.728;10.396;2022-07-29T09:51:36;14.43;;;9.57;;
59052;SDS011;44843;44.728;10.396;2022-07-29T09:54:03;19.55;;;8.75;;
59052;SDS011;44843;44.728;10.396;2022-07-29T09:56:47;8.65;;;7.32;;
59052;SDS011;44843;44.728;10.396;2022-07-29T09:59:13;9.82;;;8.13;;
59052;SDS011;44843;44.728;10.396;2022-07-29T10:01:38;11.02;;;8.30;;
59052;SDS011;44843;44.728;10.396;2022-07-29T10:04:04;11.10;;;8.10;;
59052;SDS011;44843;44.728;10.396;2022-07-29T10:06:30;11.05;;;8.52;;
59052;SDS011;44843;44.728;10.396;2022-07-29T10:09:06;12.43;;;6.93;;
59052;SDS011;44843;44.728;10.396;2022-07-29T10:11:33;8.18;;;7.30;;
59052;SDS011;44843;44.728;10.396;2022-07-29T10:13:58;9.43;;;7.60;;
59052;SDS011;44843;44.728;10.396;2022-07-29T10:16:26;12.20;;;7.38;;
59052;SDS011;44843;44.728;10.396;2022-07-29T10:18:57;8.65;;;7.30;;
59052;SDS011;44843;44.728;10.396;2022-07-29T10:21:24;8.65;;;5.72;;
59052;SDS011;44843;44.728;10.396;2022-07-29T10:23:50;7.78;;;6.10;;
59052;SDS011;44843;44.728;10.396;2022-07-29T10:26:16;8.20;;;7.20;;
59052;SDS011;44843;44.728;10.396;2022-07-29T10:28:42;8.43;;;5.70;;
59052;SDS011;44843;44.728;10.396;2022-07-29T10:31:11;9.63;;;5.53;;
59052;SDS011;44843;44.728;10.396;2022-07-29T10:36:50;11.32;;;7.35;;
59052;SDS011;44843;44.728;10.396;2022-07-29T10:39:27;9.02;;;6.45;;
59052;SDS011;44843;44.728;10.396;2022-07-29T10:42:11;11.50;;;6.30;;
59052;SDS011;44843;44.728;10.396;2022-07-29T10:44:45;10.80;;;6.82;;
59052;SDS011;44843;44.728;10.396;2022-07-29T10:47:25;8.40;;;6.82;;
59052;SDS011;44843;44.728;10.396;2022-07-29T10:49:58;7.80;;;5.90;;
59052;SDS011;44843;44.728;10.396;2022-07-29T10:52:24;7.63;;;6.78;;
59052;SDS011;44843;44.728;10.396;2022-07-29T10:55:12;8.50;;;6.60;;
59052;SDS011;44843;44.728;10.396;2022-07-29T10:58:12;8.88;;;7.25;;
59052;SDS011;44843;44.728;10.396;2022-07-29T11:00:45;8.02;;;6.57;;
59052;SDS011;44843;44.728;10.396;2022-07-29T11:03:55;11.23;;;5.55;;
59052;SDS011;44843;44.728;10.396;2022-07-29T11:06:09;7.22;;;5.93;;
59052;SDS011;44843;44.728;10.396;2022-07-29T11:08:35;10.15;;;6.45;;
59052;SDS011;44843;44.728;10.396;2022-07-29T11:16:13;6.72;;;6.03;;
59052;SDS011;44843;44.728;10.396;2022-07-29T11:21:36;7.72;;;4.78;;
59052;SDS011;44843;44.728;10.396;2022-07-29T11:29:47;9.43;;;5.47;;
59052;SDS011;44843;44.728;10.396;2022-07-29T11:32:20;8.98;;;4.53;;
59052;SDS011;44843;44.728;10.396;2022-07-29T11:34:48;4.53;;;4.10;;
59052;SDS011;44843;44.728;10.396;2022-07-29T11:37:16;6.57;;;4.03;;
59052;SDS011;44843;44.728;10.396;2022-07-29T11:39:43;5.35;;;3.90;;
59052;SDS011;44843;44.728;10.396;2022-07-29T11:47:35;6.35;;;4.30;;
59052;SDS011;44843;44.728;10.396;2022-07-29T11:50:02;6.05;;;4.18;;
59052;SDS011;44843;44.728;10.396;2022-07-29T11:53:03;7.68;;;4.88;;
59052;SDS011;44843;44.728;10.396;2022-07-29T11:55:22;5.82;;;4.20;;
59052;SDS011;44843;44.728;10.396;2022-07-29T11:57:52;5.80;;;5.20;;
59052;SDS011;44843;44.728;10.396;2022-07-29T12:02:50;5.70;;;3.95;;
59052;SDS011;44843;44.728;10.396;2022-07-29T12:05:15;7.13;;;4.10;;
59052;SDS011;44843;44.728;10.396;2022-07-29T12:07:41;7.93;;;4.28;;
59052;SDS011;44843;44.728;10.396;2022-07-29T12:10:07;9.77;;;4.22;;
59052;SDS011;44843;44.728;10.396;2022-07-29T12:12:34;5.38;;;4.25;;
59052;SDS011;44843;44.728;10.396;2022-07-29T12:15:13;5.75;;;4.15;;
59052;SDS011;44843;44.728;10.396;2022-07-29T12:17:40;5.60;;;4.25;;
59052;SDS011;44843;44.728;10.396;2022-07-29T12:20:06;4.60;;;3.67;;
59052;SDS011;44843;44.728;10.396;2022-07-29T12:25:03;5.75;;;4.20;;
59052;SDS011;44843;44.728;10.396;2022-07-29T12:27:31;8.82;;;4.57;;
59052;SDS011;44843;44.728;10.396;2022-07-29T12:32:35;6.30;;;4.32;;
59052;SDS011;44843;44.728;10.396;2022-07-29T12:35:05;5.32;;;4.38;;
59052;SDS011;44843;44.728;10.396;2022-07-29T12:37:37;7.10;;;4.03;;
59052;SDS011;44843;44.728;10.396;2022-07-29T12:40:04;4.97;;;3.90;;
59052;SDS011;44843;44.728;10.396;2022-07-29T12:42:31;5.50;;;4.35;;
59052;SDS011;44843;44.728;10.396;2022-07-29T12:44:57;7.40;;;4.35;;
59052;SDS011;44843;44.728;10.396;2022-07-29T12:47:22;7.57;;;4.38;;
59052;SDS011;44843;44.728;10.396;2022-07-29T12:49:48;5.00;;;4.47;;
59052;SDS011;44843;44.728;10.396;2022-07-29T12:52:28;12.27;;;4.22;;
59052;SDS011;44843;44.728;10.396;2022-07-29T12:54:55;5.28;;;4.03;;
59052;SDS011;44843;44.728;10.396;2022-07-29T12:57:21;6.63;;;4.05;;
59052;SDS011;44843;44.728;10.396;2022-07-29T13:00:00;7.50;;;4.18;;
59052;SDS011;44843;44.728;10.396;2022-07-29T13:02:34;8.38;;;4.57;;
59052;SDS011;44843;44.728;10.396;2022-07-29T13:04:59;7.28;;;4.07;;
59052;SDS011;44843;44.728;10.396;2022-07-29T13:07:26;6.32;;;3.83;;
59052;SDS011;44843;44.728;10.396;2022-07-29T13:09:54;7.43;;;4.15;;
59052;SDS011;44843;44.728;10.396;2022-07-29T13:12:36;8.52;;;4.25;;
59052;SDS011;44843;44.728;10.396;2022-07-29T13:15:12;6.75;;;4.55;;
59052;SDS011;44843;44.728;10.396;2022-07-29T13:17:44;7.65;;;4.25;;
59052;SDS011;44843;44.728;10.396;2022-07-29T13:20:10;5.72;;;4.57;;
59052;SDS011;44843;44.728;10.396;2022-07-29T13:22:40;6.03;;;4.43;;
59052;SDS011;44843;44.728;10.396;2022-07-29T13:25:09;6.35;;;4.25;;
59052;SDS011;44843;44.728;10.396;2022-07-29T13:27:35;4.78;;;4.00;;
59052;SDS011;44843;44.728;10.396;2022-07-29T13:30:04;8.57;;;4.93;;
59052;SDS011;44843;44.728;10.396;2022-07-29T13:32:34;6.68;;;5.97;;
59052;SDS011;44843;44.728;10.396;2022-07-29T13:35:02;5.82;;;4.53;;
59052;SDS011;44843;44.728;10.396;2022-07-29T13:37:29;8.05;;;5.43;;
59052;SDS011;44843;44.728;10.396;2022-07-29T13:39:58;5.43;;;4.38;;
59052;SDS011;44843;44.728;10.396;2022-07-29T13:42:24;6.45;;;4.68;;
59052;SDS011;44843;44.728;10.396;2022-07-29T13:44:51;7.63;;;4.70;;
59052;SDS011;44843;44.728;10.396;2022-07-29T13:47:20;6.50;;;5.00;;
59052;SDS011;44843;44.728;10.396;2022-07-29T13:49:45;6.18;;;4.57;;
59052;SDS011;44843;44.728;10.396;2022-07-29T13:52:11;4.65;;;4.10;;
59052;SDS011;44843;44.728;10.396;2022-07-29T13:54:36;11.70;;;4.75;;
59052;SDS011;44843;44.728;10.396;2022-07-29T13:57:03;7.50;;;5.35;;
59052;SDS011;44843;44.728;10.396;2022-07-29T13:59:29;6.03;;;5.20;;
59052;SDS011;44843;44.728;10.396;2022-07-29T14:01:54;9.90;;;5.55;;
59052;SDS011;44843;44.728;10.396;2022-07-29T14:04:20;13.27;;;6.40;;
59052;SDS011;44843;44.728;10.396;2022-07-29T14:06:46;12.63;;;7.05;;
59052;SDS011;44843;44.728;10.396;2022-07-29T14:09:12;9.15;;;5.07;;
59052;SDS011;44843;44.728;10.396;2022-07-29T14:11:37;13.20;;;6.18;;
59052;SDS011;44843;44.728;10.396;2022-07-29T14:14:06;21.73;;;8.48;;
59052;SDS011;44843;44.728;10.396;2022-07-29T14:16:32;12.68;;;7.13;;
59052;SDS011;44843;44.728;10.396;2022-07-29T14:18:57;11.43;;;6.40;;
59052;SDS011;44843;44.728;10.396;2022-07-29T14:21:22;7.97;;;6.68;;
59052;SDS011;44843;44.728;10.396;2022-07-29T14:23:48;10.40;;;6.82;;
59052;SDS011;44843;44.728;10.396;2022-07-29T14:26:13;8.95;;;6.68;;
59052;SDS011;44843;44.728;10.396;2022-07-29T14:28:39;9.27;;;7.05;;
59052;SDS011;44843;44.728;10.396;2022-07-29T14:31:04;8.65;;;6.28;;
59052;SDS011;44843;44.728;10.396;2022-07-29T14:33:29;6.68;;;5.95;;
59052;SDS011;44843;44.728;10.396;2022-07-29T14:35:55;7.93;;;5.63;;
59052;SDS011;44843;44.728;10.396;2022-07-29T14:38:20;8.73;;;6.25;;
59052;SDS011;44843;44.728;10.396;2022-07-29T14:40:46;7.82;;;6.15;;
59052;SDS011;44843;44.728;10.396;2022-07-29T14:43:12;12.32;;;6.55;;
59052;SDS011;44843;44.728;10.396;2022-07-29T14:45:38;7.65;;;6.15;;
59052;SDS011;44843;44.728;10.396;2022-07-29T14:48:04;8.02;;;6.97;;
59052;SDS011;44843;44.728;10.396;2022-07-29T14:50:30;10.90;;;7.20;;
59052;SDS011;44843;44.728;10.396;2022-07-29T14:52:55;11.32;;;7.80;;
59052;SDS011;44843;44.728;10.396;2022-07-29T14:55:21;8.43;;;6.70;;
59052;SDS011;44843;44.728;10.396;2022-07-29T14:57:47;12.38;;;6.82;;
59052;SDS011;44843;44.728;10.396;2022-07-29T15:00:13;11.80;;;7.68;;
59052;SDS011;44843;44.728;10.396;2022-07-29T15:02:38;11.00;;;7.55;;
59052;SDS011;44843;44.728;10.396;2022-07-29T15:05:04;7.40;;;6.60;;
59052;SDS011;44843;44.728;10.396;2022-07-29T15:07:30;6.78;;;6.07;;
59052;SDS011;44843;44.728;10.396;2022-07-29T15:09:55;6.70;;;5.60;;
59052;SDS011;44843;44.728;10.396;2022-07-29T15:12:20;9.25;;;5.50;;
59052;SDS011;44843;44.728;10.396;2022-07-29T15:14:46;7.88;;;5.97;;
59052;SDS011;44843;44.728;10.396;2022-07-29T15:17:12;10.68;;;6.20;;
59052;SDS011;44843;44.728;10.396;2022-07-29T15:19:37;9.32;;;6.57;;